Time;durP1;ratioP1;P1;durP2;ratioP2;P2;SDS_P1;SDS_P2;PMS_P1;PMS_P2;Temp;Humidity;BMP_temperature;BMP_pressure;BME280_temperature;BME280_humidity;BME280_pressure;Samples;Min_cycle;Max_cycle;Signal;HPM_P1;HPM_P2
2022/12/09 00:01:07;;;;;;;35.05;18.73;;;;;;;;;;5007745;28;20066;-80
2022/12/09 00:03:32;;;;;;;;;;;;;;;;;;5010912;28;20064;-80
2022/12/09 00:05:58;;;;;;;39.08;20.20;;;;;;;;;;5020897;28;19917;-82
2022/12/09 00:08:23;;;;;;;36.28;20.08;;;;;;;;;;5015924;28;20104;-81
2022/12/09 00:10:49;;;;;;;33.75;19.27;;;;;;;;;;4984994;28;20030;-81
2022/12/09 00:13:14;;;;;;;38.90;19.67;;;;;;;;;;5012344;28;20036;-81
2022/12/09 00:15:41;;;;;;;34.42;18.13;;;;;;;;;;5050326;28;20110;-81
2022/12/09 00:18:06;;;;;;;34.72;18.83;;;;;;;;;;5033152;28;20131;-82
2022/12/09 00:20:32;;;;;;;33.45;18.80;;;;;;;;;;5015566;28;20120;-80
2022/12/09 00:22:57;;;;;;;36.63;19.85;;;;;;;;;;5017079;28;20035;-81
2022/12/09 00:25:23;;;;;;;38.75;19.70;;;;;;;;;;5042606;28;20037;-81
2022/12/09 00:27:48;;;;;;;36.40;19.13;;;;;;;;;;5046320;28;20039;-80
2022/12/09 00:30:14;;;;;;;35.72;18.77;;;;;;;;;;5045515;28;20094;-80
2022/12/09 00:32:39;;;;;;;36.92;18.85;;;;;;;;;;5014642;28;20036;-80
2022/12/09 00:35:05;;;;;;;34.20;19.02;;;;;;;;;;5041635;28;20036;-81
2022/12/09 00:37:32;;;;;;;34.70;19.05;;;;;;;;;;5033080;28;20500;-81
2022/12/09 00:39:57;;;;;;;38.42;19.33;;;;;;;;;;5033311;28;20407;-81
2022/12/09 00:42:23;;;;;;;36.47;18.55;;;;;;;;;;5020513;28;20029;-81
2022/12/09 00:44:48;;;;;;;40.13;20.60;;;;;;;;;;5031891;28;20044;-81
2022/12/09 00:47:14;;;;;;;36.90;19.13;;;;;;;;;;5030026;28;20111;-81
2022/12/09 00:49:39;;;;;;;41.15;20.30;;;;;;;;;;5043671;28;20029;-81
2022/12/09 00:52:05;;;;;;;37.30;20.20;;;;;;;;;;5024513;28;20026;-80
2022/12/09 00:54:31;;;;;;;34.70;18.33;;;;;;;;;;5032730;28;20032;-80
2022/12/09 00:56:57;;;;;;;41.15;20.13;;;;;;;;;;5032220;28;20510;-81
2022/12/09 00:59:22;;;;;;;39.55;19.70;;;;;;;;;;5034580;28;20089;-80
2022/12/09 01:01:48;;;;;;;39.80;19.30;;;;;;;;;;5038792;28;20043;-80
2022/12/09 01:04:13;;;;;;;40.38;20.88;;;;;;;;;;5048886;28;20553;-80
2022/12/09 01:06:40;;;;;;;42.00;20.52;;;;;;;;;;5046315;28;20025;-81
2022/12/09 01:09:05;;;;;;;40.40;20.05;;;;;;;;;;5038325;28;20064;-80
2022/12/09 01:11:31;;;;;;;37.20;20.00;;;;;;;;;;5013917;28;20052;-80
2022/12/09 01:13:59;;;;;;;39.42;20.05;;;;;;;;;;5029392;28;20037;-80
2022/12/09 01:16:26;;;;;;;35.95;18.63;;;;;;;;;;5024902;28;20080;-80
2022/12/09 01:18:52;;;;;;;40.85;20.98;;;;;;;;;;5031722;28;20044;-81
2022/12/09 01:21:18;;;;;;;;;;;;;;;;;;5016204;28;20103;-81
2022/12/09 01:23:43;;;;;;;39.55;20.33;;;;;;;;;;5030087;28;20755;-81
2022/12/09 01:26:09;;;;;;;41.65;20.48;;;;;;;;;;5033035;28;20658;-81
2022/12/09 01:28:35;;;;;;;42.33;21.60;;;;;;;;;;5045390;28;20029;-81
2022/12/09 01:31:00;;;;;;;;;;;;;;;;;;5025869;28;20411;-81
2022/12/09 01:33:26;;;;;;;40.88;19.98;;;;;;;;;;5050031;28;19908;-81
2022/12/09 01:35:53;;;;;;;37.03;19.38;;;;;;;;;;5029359;28;20073;-81
2022/12/09 01:38:18;;;;;;;37.25;19.30;;;;;;;;;;5043255;28;20110;-81
2022/12/09 01:40:45;;;;;;;40.83;20.52;;;;;;;;;;5038488;28;20449;-81
2022/12/09 01:43:17;;;;;;;36.28;19.90;;;;;;;;;;5026120;28;20110;-81
2022/12/09 01:45:42;;;;;;;35.10;19.63;;;;;;;;;;5031030;28;20456;-81
2022/12/09 01:48:10;;;;;;;33.53;18.58;;;;;;;;;;5026841;28;20162;-81
2022/12/09 01:50:36;;;;;;;37.70;19.00;;;;;;;;;;5039850;28;20101;-81
2022/12/09 01:53:01;;;;;;;39.35;20.00;;;;;;;;;;5062007;28;20021;-81
2022/12/09 01:55:27;;;;;;;36.33;19.52;;;;;;;;;;5014840;28;20040;-81
2022/12/09 01:57:52;;;;;;;35.45;19.15;;;;;;;;;;5031061;28;20033;-81
2022/12/09 02:00:18;;;;;;;;;;;;;;;;;;5046263;28;20032;-81
2022/12/09 02:02:45;;;;;;;36.53;18.48;;;;;;;;;;5034575;28;19916;-81
2022/12/09 02:05:10;;;;;;;38.67;19.80;;;;;;;;;;5019109;28;20048;-81
2022/12/09 02:07:38;;;;;;;35.35;19.08;;;;;;;;;;5024479;28;20388;-81
2022/12/09 02:10:04;;;;;;;36.55;19.70;;;;;;;;;;5028914;28;20029;-81
2022/12/09 02:12:46;;;;;;;35.53;18.30;;;;;;;;;;5021315;28;20025;-82
2022/12/09 02:15:11;;;;;;;36.58;19.58;;;;;;;;;;5022086;28;20878;-81
2022/12/09 02:17:43;;;;;;;38.95;18.98;;;;;;;;;;5045286;28;20040;-81
2022/12/09 02:20:14;;;;;;;34.53;19.10;;;;;;;;;;5013295;28;20107;-81
2022/12/09 02:22:42;;;;;;;33.78;18.35;;;;;;;;;;5011544;28;20036;-81
2022/12/09 02:25:28;;;;;;;33.05;17.55;;;;;;;;;;5023809;28;20025;-81
2022/12/09 02:28:14;;;;;;;33.58;18.60;;;;;;;;;;5013222;28;20038;-81
2022/12/09 02:30:44;;;;;;;33.60;18.55;;;;;;;;;;5026968;28;20488;-81
2022/12/09 02:33:12;;;;;;;33.38;17.35;;;;;;;;;;5025008;28;20033;-81
2022/12/09 02:35:38;;;;;;;35.08;18.60;;;;;;;;;;5053468;28;20408;-81
2022/12/09 02:38:18;;;;;;;36.00;18.80;;;;;;;;;;5045558;28;20036;-81
2022/12/09 02:40:50;;;;;;;37.55;19.30;;;;;;;;;;5004176;28;20036;-81
2022/12/09 02:43:16;;;;;;;34.08;19.45;;;;;;;;;;5034977;28;20040;-82
2022/12/09 02:45:42;;;;;;;34.63;17.88;;;;;;;;;;5015768;28;20036;-80
2022/12/09 02:48:08;;;;;;;35.03;19.70;;;;;;;;;;5021671;28;20037;-80
2022/12/09 02:50:34;;;;;;;35.05;19.67;;;;;;;;;;5031536;28;20044;-80
2022/12/09 02:53:02;;;;;;;36.67;19.15;;;;;;;;;;5036384;28;20040;-80
2022/12/09 02:55:29;;;;;;;36.58;19.02;;;;;;;;;;5020114;28;20021;-81
2022/12/09 02:57:55;;;;;;;37.30;20.52;;;;;;;;;;5016322;28;20519;-82
2022/12/09 03:00:21;;;;;;;35.40;18.10;;;;;;;;;;5016082;28;20047;-81
2022/12/09 03:02:47;;;;;;;37.05;19.08;;;;;;;;;;5027359;28;20073;-81
2022/12/09 03:05:12;;;;;;;;;;;;;;;;;;5043698;28;20028;-80
2022/12/09 03:07:38;;;;;;;48.28;25.50;;;;;;;;;;5071622;28;19923;-80
2022/12/09 03:10:15;;;;;;;41.60;21.13;;;;;;;;;;5055191;28;20029;-80
2022/12/09 03:12:41;;;;;;;42.17;21.38;;;;;;;;;;5058351;28;20029;-80
2022/12/09 03:15:07;;;;;;;42.08;20.35;;;;;;;;;;5072196;28;20048;-81
2022/12/09 03:17:33;;;;;;;48.63;21.38;;;;;;;;;;5044057;28;20068;-80
2022/12/09 03:19:58;;;;;;;;;;;;;;;;;;5009662;28;20041;-80
2022/12/09 03:22:25;;;;;;;41.80;21.38;;;;;;;;;;5046059;28;19919;-81
2022/12/09 03:24:56;;;;;;;45.72;22.23;;;;;;;;;;5025381;28;20400;-81
2022/12/09 03:27:24;;;;;;;47.70;22.15;;;;;;;;;;5020600;28;20041;-80
2022/12/09 03:29:49;;;;;;;49.42;22.20;;;;;;;;;;5034585;28;20017;-81
2022/12/09 03:32:15;;;;;;;43.20;23.30;;;;;;;;;;5049126;28;20029;-82
2022/12/09 03:34:41;;;;;;;44.95;23.40;;;;;;;;;;5028253;28;20079;-82
2022/12/09 03:37:06;;;;;;;42.15;23.40;;;;;;;;;;5034575;28;20048;-82
2022/12/09 03:39:33;;;;;;;42.83;23.83;;;;;;;;;;5035464;28;20436;-80
2022/12/09 03:42:00;;;;;;;43.05;23.33;;;;;;;;;;5034814;28;20032;-81
2022/12/09 03:44:31;;;;;;;48.30;23.92;;;;;;;;;;5048784;28;20020;-81
2022/12/09 03:46:56;;;;;;;46.85;24.40;;;;;;;;;;5031862;28;20037;-81
2022/12/09 03:49:22;;;;;;;52.92;24.33;;;;;;;;;;5049481;28;20029;-81
2022/12/09 03:51:55;;;;;;;43.50;23.60;;;;;;;;;;5034712;28;20037;-81
2022/12/09 03:54:25;;;;;;;43.58;22.67;;;;;;;;;;5029725;28;20038;-81
2022/12/09 03:56:52;;;;;;;42.42;22.10;;;;;;;;;;5043822;28;20029;-81
2022/12/09 03:59:18;;;;;;;45.50;24.23;;;;;;;;;;5018130;28;20037;-80
2022/12/09 04:01:43;;;;;;;42.10;23.75;;;;;;;;;;5028350;28;20028;-81
2022/12/09 04:04:09;;;;;;;45.95;23.98;;;;;;;;;;5034910;28;20037;-80
2022/12/09 04:06:34;;;;;;;44.33;23.58;;;;;;;;;;5051017;28;20467;-80
2022/12/09 04:09:00;;;;;;;42.08;23.95;;;;;;;;;;5049188;28;20044;-81
2022/12/09 04:11:25;;;;;;;44.00;24.65;;;;;;;;;;5054450;28;20028;-81
2022/12/09 04:13:51;;;;;;;46.22;24.35;;;;;;;;;;5050341;28;20029;-81
2022/12/09 04:16:16;;;;;;;43.28;23.15;;;;;;;;;;5051916;28;20083;-81
2022/12/09 04:18:42;;;;;;;39.33;22.88;;;;;;;;;;5043572;28;20045;-81
2022/12/09 04:21:07;;;;;;;47.88;23.48;;;;;;;;;;5040495;28;20037;-81
2022/12/09 04:23:33;;;;;;;43.50;22.45;;;;;;;;;;5033271;28;20032;-83
2022/12/09 04:25:58;;;;;;;42.90;21.92;;;;;;;;;;5047393;28;20025;-82
2022/12/09 04:28:24;;;;;;;42.58;21.50;;;;;;;;;;5048720;28;20426;-82
2022/12/09 04:30:49;;;;;;;44.20;21.80;;;;;;;;;;5020810;28;20032;-82
2022/12/09 04:33:15;;;;;;;42.25;22.83;;;;;;;;;;5041429;28;20040;-82
2022/12/09 04:35:40;;;;;;;37.17;21.17;;;;;;;;;;5055641;28;20051;-82
2022/12/09 04:38:06;;;;;;;40.50;22.80;;;;;;;;;;5059562;28;20052;-84
2022/12/09 04:40:32;;;;;;;41.50;22.08;;;;;;;;;;5040054;28;20029;-83
2022/12/09 04:42:58;;;;;;;44.00;22.38;;;;;;;;;;5054382;28;20067;-83
2022/12/09 04:45:23;;;;;;;38.90;21.63;;;;;;;;;;5042100;28;20111;-83
2022/12/09 04:47:49;;;;;;;46.00;22.67;;;;;;;;;;5042366;28;20116;-82
2022/12/09 04:50:14;;;;;;;46.42;27.38;;;;;;;;;;5029312;28;20028;-82
2022/12/09 04:52:40;;;;;;;41.38;23.60;;;;;;;;;;5050428;28;20025;-81
2022/12/09 04:55:06;;;;;;;40.78;21.77;;;;;;;;;;5062560;28;20364;-82
2022/12/09 04:57:31;;;;;;;41.45;22.83;;;;;;;;;;5050793;28;20036;-80
2022/12/09 04:59:57;;;;;;;40.53;21.88;;;;;;;;;;5053423;28;20081;-81
2022/12/09 05:02:22;;;;;;;41.65;21.48;;;;;;;;;;5037375;28;20036;-80
2022/12/09 05:04:48;;;;;;;37.72;21.92;;;;;;;;;;5051182;28;20179;-84
2022/12/09 05:07:13;;;;;;;43.08;23.17;;;;;;;;;;5066705;28;20507;-81
2022/12/09 05:09:39;;;;;;;43.80;21.98;;;;;;;;;;5047197;28;20074;-84
2022/12/09 05:12:04;;;;;;;39.15;21.23;;;;;;;;;;5038610;28;20511;-82
2022/12/09 05:14:30;;;;;;;36.03;19.98;;;;;;;;;;5042001;28;20059;-83
2022/12/09 05:16:55;;;;;;;34.05;21.08;;;;;;;;;;5029308;28;20045;-84
2022/12/09 05:19:22;;;;;;;41.53;21.90;;;;;;;;;;5038079;28;20077;-85
2022/12/09 05:21:47;;;;;;;37.03;21.35;;;;;;;;;;5034244;28;20467;-84
2022/12/09 05:24:13;;;;;;;41.50;21.52;;;;;;;;;;5058828;28;20032;-81
2022/12/09 05:26:38;;;;;;;36.63;21.73;;;;;;;;;;5053991;28;20043;-81
2022/12/09 05:29:04;;;;;;;36.15;21.05;;;;;;;;;;5062381;28;20024;-81
2022/12/09 05:31:29;;;;;;;40.40;22.98;;;;;;;;;;5043496;28;20029;-81
2022/12/09 05:33:55;;;;;;;41.90;23.90;;;;;;;;;;5022858;28;20508;-81
2022/12/09 05:36:23;;;;;;;48.10;24.42;;;;;;;;;;5043777;28;20030;-83
2022/12/09 05:38:48;;;;;;;37.38;23.35;;;;;;;;;;5036724;28;20071;-83
2022/12/09 05:41:14;;;;;;;42.25;23.95;;;;;;;;;;5034934;28;20542;-82
2022/12/09 05:43:39;;;;;;;42.10;22.02;;;;;;;;;;5051465;28;20029;-82
2022/12/09 05:46:05;;;;;;;37.05;21.73;;;;;;;;;;5035255;28;20068;-83
2022/12/09 05:48:31;;;;;;;41.55;21.65;;;;;;;;;;5036755;28;20021;-83
2022/12/09 05:51:00;;;;;;;37.42;21.42;;;;;;;;;;5053319;28;20036;-82
2022/12/09 05:53:26;;;;;;;40.15;21.50;;;;;;;;;;5039359;28;20495;-83
2022/12/09 05:55:52;;;;;;;43.40;22.65;;;;;;;;;;5058739;28;20029;-82
2022/12/09 05:58:17;;;;;;;38.70;22.33;;;;;;;;;;5023370;28;20083;-81
2022/12/09 06:00:43;;;;;;;37.45;21.80;;;;;;;;;;5041153;28;20037;-83
2022/12/09 06:03:08;;;;;;;44.55;22.90;;;;;;;;;;5062950;28;20056;-83
2022/12/09 06:05:35;;;;;;;37.70;22.42;;;;;;;;;;5048423;28;20033;-84
2022/12/09 06:08:00;;;;;;;38.97;21.48;;;;;;;;;;5023135;28;20062;-83
2022/12/09 06:10:25;;;;;;;35.25;21.55;;;;;;;;;;5052722;28;20062;-83
2022/12/09 06:12:54;;;;;;;37.15;21.98;;;;;;;;;;5055236;28;20025;-83
2022/12/09 06:15:20;;;;;;;41.83;22.60;;;;;;;;;;5059251;28;20132;-82
2022/12/09 06:17:45;;;;;;;36.67;21.38;;;;;;;;;;5057047;28;20120;-82
2022/12/09 06:20:11;;;;;;;46.13;24.92;;;;;;;;;;5054972;28;20034;-82
2022/12/09 06:22:36;;;;;;;40.08;22.65;;;;;;;;;;5051083;28;20401;-82
2022/12/09 06:25:02;;;;;;;40.38;21.70;;;;;;;;;;5043307;28;20036;-82
2022/12/09 06:27:27;;;;;;;41.88;22.20;;;;;;;;;;5040208;28;20033;-82
2022/12/09 06:29:53;;;;;;;39.95;21.35;;;;;;;;;;5024561;28;20037;-82
2022/12/09 06:32:18;;;;;;;44.70;22.60;;;;;;;;;;5018322;28;20034;-82
2022/12/09 06:34:44;;;;;;;44.72;21.75;;;;;;;;;;5067032;28;20032;-84
2022/12/09 06:37:09;;;;;;;41.80;22.55;;;;;;;;;;5043562;28;20033;-83
2022/12/09 06:39:34;;;;;;;40.92;23.05;;;;;;;;;;5058686;28;20045;-83
2022/12/09 06:42:00;;;;;;;46.00;22.77;;;;;;;;;;5058801;28;20036;-82
2022/12/09 06:44:26;;;;;;;45.33;21.73;;;;;;;;;;5060124;28;20087;-83
2022/12/09 06:46:51;;;;;;;38.97;22.77;;;;;;;;;;5049686;28;20043;-83
2022/12/09 06:49:17;;;;;;;43.58;23.10;;;;;;;;;;5050852;28;20533;-83
2022/12/09 06:51:42;;;;;;;40.25;22.05;;;;;;;;;;5064141;28;20029;-84
2022/12/09 06:54:08;;;;;;;43.00;22.60;;;;;;;;;;5038908;28;20035;-83
2022/12/09 06:56:34;;;;;;;43.78;22.77;;;;;;;;;;5034323;28;20032;-84
2022/12/09 06:58:59;;;;;;;44.20;22.77;;;;;;;;;;5034276;28;20037;-83
2022/12/09 07:01:25;;;;;;;41.72;20.88;;;;;;;;;;5019607;28;20068;-83
2022/12/09 07:03:54;;;;;;;40.00;20.55;;;;;;;;;;5056173;28;20036;-83
2022/12/09 07:06:25;;;;;;;45.38;22.00;;;;;;;;;;5044151;28;20090;-83
2022/12/09 07:08:51;;;;;;;42.00;22.10;;;;;;;;;;5055367;28;20037;-83
2022/12/09 07:11:17;;;;;;;41.88;22.33;;;;;;;;;;5062676;28;20040;-83
2022/12/09 07:13:42;;;;;;;44.35;22.92;;;;;;;;;;5061874;28;20020;-83
2022/12/09 07:16:08;;;;;;;43.60;22.40;;;;;;;;;;5059826;28;20060;-83
2022/12/09 07:18:33;;;;;;;45.50;23.30;;;;;;;;;;5007239;28;20040;-84
2022/12/09 07:21:04;;;;;;;44.70;24.08;;;;;;;;;;5053441;28;20381;-84
2022/12/09 07:23:30;;;;;;;47.13;23.40;;;;;;;;;;5043410;28;20033;-83
2022/12/09 07:25:56;;;;;;;47.60;24.50;;;;;;;;;;5048408;28;20035;-83
2022/12/09 07:28:21;;;;;;;45.40;22.60;;;;;;;;;;5046082;28;20029;-82
2022/12/09 07:30:47;;;;;;;45.25;22.42;;;;;;;;;;5019333;28;20033;-83
2022/12/09 07:33:12;;;;;;;43.80;23.15;;;;;;;;;;5044130;28;20116;-83
2022/12/09 07:35:38;;;;;;;45.03;23.60;;;;;;;;;;5062208;28;20029;-83
2022/12/09 07:38:03;;;;;;;45.53;24.45;;;;;;;;;;5042155;28;20099;-83
2022/12/09 07:40:29;;;;;;;55.05;28.50;;;;;;;;;;5050627;28;20037;-83
2022/12/09 07:42:54;;;;;;;52.08;24.98;;;;;;;;;;5055493;28;20036;-83
2022/12/09 07:45:20;;;;;;;47.15;23.33;;;;;;;;;;5026888;28;20025;-83
2022/12/09 07:47:45;;;;;;;44.97;22.80;;;;;;;;;;5054747;28;20071;-83
2022/12/09 07:50:11;;;;;;;47.92;22.98;;;;;;;;;;5059260;28;20572;-83
2022/12/09 07:52:36;;;;;;;43.80;23.38;;;;;;;;;;5023751;28;20511;-83
2022/12/09 07:55:02;;;;;;;53.45;26.42;;;;;;;;;;5047836;28;20032;-83
2022/12/09 07:57:27;;;;;;;50.55;25.98;;;;;;;;;;5041676;28;20036;-83
2022/12/09 07:59:53;;;;;;;51.28;25.10;;;;;;;;;;5017519;28;20094;-83
2022/12/09 08:02:19;;;;;;;46.33;23.33;;;;;;;;;;5041052;28;20032;-83
2022/12/09 08:04:44;;;;;;;47.40;22.83;;;;;;;;;;5046524;28;20029;-83
2022/12/09 08:07:10;;;;;;;42.60;21.45;;;;;;;;;;5064922;28;20036;-83
2022/12/09 08:09:35;;;;;;;44.58;21.98;;;;;;;;;;5035358;28;20029;-83
2022/12/09 08:12:01;;;;;;;41.13;21.98;;;;;;;;;;5017536;28;20064;-83
2022/12/09 08:14:26;;;;;;;47.17;22.65;;;;;;;;;;5055398;28;20064;-83
2022/12/09 08:16:52;;;;;;;48.30;22.75;;;;;;;;;;5046059;28;20095;-83
2022/12/09 08:19:17;;;;;;;47.33;23.70;;;;;;;;;;5047277;28;20127;-83
2022/12/09 08:21:43;;;;;;;53.25;27.95;;;;;;;;;;5039832;28;20029;-83
2022/12/09 08:24:09;;;;;;;51.33;25.75;;;;;;;;;;5046487;28;20037;-83
2022/12/09 08:26:36;;;;;;;;;;;;;;;;;;5052752;28;20078;-83
2022/12/09 08:29:05;;;;;;;45.03;21.75;;;;;;;;;;5040903;28;19951;-82
2022/12/09 08:31:30;;;;;;;44.40;22.10;;;;;;;;;;5023008;28;20115;-82
2022/12/09 08:33:55;;;;;;;42.63;21.58;;;;;;;;;;5048575;28;20108;-83
2022/12/09 08:36:25;;;;;;;43.10;22.15;;;;;;;;;;5031669;28;20453;-83
2022/12/09 08:38:50;;;;;;;41.33;20.95;;;;;;;;;;5030921;28;20452;-82
2022/12/09 08:41:17;;;;;;;42.40;22.45;;;;;;;;;;5053569;28;20067;-84
2022/12/09 08:43:43;;;;;;;41.83;22.05;;;;;;;;;;5023756;28;20075;-82
2022/12/09 08:46:08;;;;;;;41.10;21.30;;;;;;;;;;5034501;28;20059;-84
2022/12/09 08:48:35;;;;;;;65.88;35.47;;;;;;;;;;5029920;28;20112;-83
2022/12/09 08:51:00;;;;;;;;;;;;;;;;;;5046478;28;20028;-83
2022/12/09 08:53:26;;;;;;;43.40;23.52;;;;;;;;;;5047892;28;20007;-82
2022/12/09 08:55:51;;;;;;;45.88;24.25;;;;;;;;;;5015905;28;20049;-83
2022/12/09 08:58:16;;;;;;;48.70;24.77;;;;;;;;;;5035642;28;20041;-83
2022/12/09 09:00:42;;;;;;;46.55;24.30;;;;;;;;;;5049497;28;20056;-82
2022/12/09 09:03:07;;;;;;;49.70;25.45;;;;;;;;;;5066023;28;20036;-83
2022/12/09 09:05:33;;;;;;;40.80;23.10;;;;;;;;;;5042750;28;20041;-84
2022/12/09 09:07:58;;;;;;;46.15;24.20;;;;;;;;;;5052709;28;20041;-83
2022/12/09 09:10:24;;;;;;;40.38;22.65;;;;;;;;;;5043338;28;20033;-83
2022/12/09 09:12:49;;;;;;;43.42;24.25;;;;;;;;;;5053192;28;20025;-82
2022/12/09 09:15:16;;;;;;;42.35;22.58;;;;;;;;;;5049904;28;20158;-84
2022/12/09 09:17:41;;;;;;;41.75;20.85;;;;;;;;;;5033528;28;20047;-84
2022/12/09 09:20:07;;;;;;;40.85;21.48;;;;;;;;;;5029540;28;20033;-82
2022/12/09 09:22:33;;;;;;;39.25;22.30;;;;;;;;;;5029497;28;20044;-84
2022/12/09 09:24:58;;;;;;;43.53;21.85;;;;;;;;;;5041563;28;20101;-82
2022/12/09 09:27:24;;;;;;;43.75;23.35;;;;;;;;;;5061075;28;20048;-84
2022/12/09 09:29:49;;;;;;;45.50;22.88;;;;;;;;;;5017408;28;20520;-84
2022/12/09 09:32:15;;;;;;;44.70;22.27;;;;;;;;;;5031790;28;20112;-84
2022/12/09 09:34:40;;;;;;;41.38;23.05;;;;;;;;;;5047223;28;20100;-82
2022/12/09 09:37:06;;;;;;;39.08;20.98;;;;;;;;;;5040112;28;20045;-84
2022/12/09 09:39:32;;;;;;;50.10;25.20;;;;;;;;;;5051969;28;20025;-84
2022/12/09 09:42:02;;;;;;;42.08;21.98;;;;;;;;;;5053567;28;20470;-82
2022/12/09 09:44:27;;;;;;;40.90;21.80;;;;;;;;;;5039698;28;20551;-83
2022/12/09 09:46:54;;;;;;;39.20;20.52;;;;;;;;;;5051491;28;20052;-84
2022/12/09 09:49:31;;;;;;;39.03;21.60;;;;;;;;;;5028252;28;20086;-84
2022/12/09 09:51:57;;;;;;;38.50;20.80;;;;;;;;;;5059596;28;20033;-82
2022/12/09 09:54:23;;;;;;;36.97;20.80;;;;;;;;;;5029381;28;20102;-82
2022/12/09 09:56:59;;;;;;;38.28;20.13;;;;;;;;;;5040868;28;20090;-83
2022/12/09 09:59:27;;;;;;;41.55;21.60;;;;;;;;;;5048405;28;20585;-83
2022/12/09 10:01:56;;;;;;;40.85;21.95;;;;;;;;;;5020895;28;20029;-83
2022/12/09 10:04:28;;;;;;;36.60;20.38;;;;;;;;;;5042612;28;20531;-84
2022/12/09 10:06:59;;;;;;;38.92;19.65;;;;;;;;;;5029983;28;20385;-83
2022/12/09 10:09:31;;;;;;;37.85;20.45;;;;;;;;;;5031092;28;20032;-84
2022/12/09 10:11:57;;;;;;;36.10;18.98;;;;;;;;;;5054353;28;20056;-84
2022/12/09 10:14:22;;;;;;;;;;;;;;;;;;5036714;28;21655;-83
2022/12/09 10:17:20;;;;;;;36.05;18.83;;;;;;;;;;5050164;28;19923;-83
2022/12/09 10:19:51;;;;;;;41.28;21.80;;;;;;;;;;5009449;28;20051;-83
2022/12/09 10:22:18;;;;;;;37.25;19.75;;;;;;;;;;5036466;28;20131;-83
2022/12/09 10:24:45;;;;;;;40.75;20.33;;;;;;;;;;5048725;28;20110;-84
2022/12/09 10:27:13;;;;;;;35.65;18.95;;;;;;;;;;5054406;28;20512;-84
2022/12/09 10:29:42;;;;;;;38.30;19.73;;;;;;;;;;5036059;28;20028;-83
2022/12/09 10:32:17;;;;;;;32.63;18.52;;;;;;;;;;5032892;28;20068;-83
2022/12/09 10:34:43;;;;;;;37.80;20.10;;;;;;;;;;5029834;28;20024;-83
2022/12/09 10:37:12;;;;;;;39.20;20.85;;;;;;;;;;5033916;28;20074;-83
2022/12/09 10:39:37;;;;;;;41.42;21.58;;;;;;;;;;5002702;28;20091;-84
2022/12/09 10:44:47;;;;;;;37.63;20.77;;;;;;;;;;5032860;28;20075;-82
2022/12/09 10:47:25;;;;;;;36.85;19.67;;;;;;;;;;5054778;28;20025;-84
2022/12/09 10:49:51;;;;;;;37.72;21.10;;;;;;;;;;5038041;28;20493;-83
2022/12/09 10:52:20;;;;;;;35.70;19.63;;;;;;;;;;5042176;28;20031;-82
2022/12/09 10:54:46;;;;;;;33.70;18.15;;;;;;;;;;5038666;28;20086;-84
2022/12/09 10:57:11;;;;;;;33.03;18.50;;;;;;;;;;5019456;28;20496;-83
2022/12/09 10:59:37;;;;;;;32.22;17.67;;;;;;;;;;5053984;28;20112;-84
2022/12/09 11:02:08;;;;;;;33.58;18.38;;;;;;;;;;5045146;28;20036;-83
2022/12/09 11:04:41;;;;;;;37.20;19.95;;;;;;;;;;5055276;28;20033;-84
2022/12/09 11:07:23;;;;;;;33.03;17.88;;;;;;;;;;5036079;28;20135;-84
2022/12/09 11:09:54;;;;;;;31.80;17.42;;;;;;;;;;5005898;28;20083;-83
2022/12/09 11:12:26;;;;;;;32.03;18.55;;;;;;;;;;5057338;28;20488;-83
2022/12/09 11:14:52;;;;;;;32.30;18.98;;;;;;;;;;5060275;28;20044;-82
2022/12/09 11:17:18;;;;;;;;;;;;;;;;;;5041912;28;20090;-83
2022/12/09 11:19:48;;;;;;;33.47;18.75;;;;;;;;;;5056249;28;19943;-83
2022/12/09 11:22:40;;;;;;;34.00;18.38;;;;;;;;;;5027169;28;20136;-83
2022/12/09 11:25:26;;;;;;;35.13;18.45;;;;;;;;;;5042116;28;20156;-83
2022/12/09 11:27:59;;;;;;;31.30;18.85;;;;;;;;;;5048626;28;20500;-83
2022/12/09 11:30:24;;;;;;;36.75;19.98;;;;;;;;;;5027931;28;20408;-83
2022/12/09 11:33:04;;;;;;;31.63;18.48;;;;;;;;;;5048033;28;20028;-85
2022/12/09 11:35:43;;;;;;;30.70;17.50;;;;;;;;;;5053368;28;20087;-84
2022/12/09 11:38:27;;;;;;;32.25;18.15;;;;;;;;;;5026006;28;20083;-82
2022/12/09 11:41:00;;;;;;;35.63;17.83;;;;;;;;;;5051395;28;20430;-82
2022/12/09 11:43:52;;;;;;;29.38;16.77;;;;;;;;;;5023970;28;20033;-83
2022/12/09 11:46:17;;;;;;;32.28;17.50;;;;;;;;;;5042838;28;20049;-84
2022/12/09 11:48:47;;;;;;;30.17;16.98;;;;;;;;;;5055688;28;20269;-84
2022/12/09 11:51:23;;;;;;;32.90;17.02;;;;;;;;;;5029179;28;20407;-84
2022/12/09 11:53:48;;;;;;;33.53;17.88;;;;;;;;;;5040811;28;20039;-83
2022/12/09 11:56:19;;;;;;;27.30;15.52;;;;;;;;;;5019000;28;20033;-83
2022/12/09 11:58:47;;;;;;;32.58;16.10;;;;;;;;;;5043285;28;20033;-83
2022/12/09 12:01:20;;;;;;;28.65;16.48;;;;;;;;;;5031465;28;20034;-84
2022/12/09 12:03:57;;;;;;;29.05;16.48;;;;;;;;;;5032073;28;20086;-84
2022/12/09 12:06:24;;;;;;;29.88;15.75;;;;;;;;;;5024898;28;20036;-83
2022/12/09 12:08:58;;;;;;;33.10;17.00;;;;;;;;;;5031231;28;20022;-83
2022/12/09 12:11:26;;;;;;;35.47;18.77;;;;;;;;;;5034484;28;20033;-83
2022/12/09 12:14:11;;;;;;;34.65;19.63;;;;;;;;;;5034972;28;20115;-82
2022/12/09 12:16:56;;;;;;;33.65;18.15;;;;;;;;;;5057345;28;20045;-84
2022/12/09 12:19:32;;;;;;;32.70;17.92;;;;;;;;;;5059833;28;20438;-83
2022/12/09 12:22:07;;;;;;;30.42;17.50;;;;;;;;;;5042402;28;20480;-84
2022/12/09 12:24:44;;;;;;;37.20;20.17;;;;;;;;;;5058338;28;20052;-84
2022/12/09 12:27:21;;;;;;;33.10;18.35;;;;;;;;;;5044640;28;20044;-84
2022/12/09 12:29:57;;;;;;;34.30;19.20;;;;;;;;;;5034659;28;20239;-83
2022/12/09 12:32:46;;;;;;;34.60;18.40;;;;;;;;;;5049530;28;20438;-84
2022/12/09 12:35:25;;;;;;;34.00;18.85;;;;;;;;;;5016572;28;20440;-83
2022/12/09 12:38:09;;;;;;;29.52;16.45;;;;;;;;;;5035025;28;20127;-83
2022/12/09 12:40:42;;;;;;;30.42;17.02;;;;;;;;;;5038606;28;20039;-85
2022/12/09 12:46:16;;;;;;;28.17;15.93;;;;;;;;;;5019159;28;20132;-84
2022/12/09 12:48:52;;;;;;;28.73;16.40;;;;;;;;;;5046017;28;20064;-84
2022/12/09 12:51:33;;;;;;;26.35;14.82;;;;;;;;;;5051564;28;20503;-84
2022/12/09 12:53:58;;;;;;;30.88;17.05;;;;;;;;;;5041084;28;20044;-84
2022/12/09 12:56:43;;;;;;;30.52;17.00;;;;;;;;;;5047235;28;20084;-83
2022/12/09 12:59:11;;;;;;;26.63;15.32;;;;;;;;;;5044606;28;20417;-82
2022/12/09 13:01:56;;;;;;;26.88;15.50;;;;;;;;;;5033462;28;20028;-84
2022/12/09 13:04:25;;;;;;;27.65;14.75;;;;;;;;;;5018206;28;20568;-84
2022/12/09 13:06:50;;;;;;;26.35;14.32;;;;;;;;;;5056767;28;20039;-84
2022/12/09 13:09:45;;;;;;;24.48;14.60;;;;;;;;;;5052237;28;20484;-84
2022/12/09 13:12:15;;;;;;;27.38;15.57;;;;;;;;;;5041929;28;20055;-84
2022/12/09 13:14:46;;;;;;;28.35;15.50;;;;;;;;;;5025156;28;20745;-83
2022/12/09 13:17:12;;;;;;;24.55;14.68;;;;;;;;;;5036346;28;20052;-83
2022/12/09 13:19:38;;;;;;;30.33;15.43;;;;;;;;;;5034243;28;20037;-83
2022/12/09 13:22:03;;;;;;;25.05;14.25;;;;;;;;;;5049333;28;20075;-83
2022/12/09 13:24:32;;;;;;;28.48;15.35;;;;;;;;;;5010331;28;20029;-83
2022/12/09 13:27:04;;;;;;;27.25;15.20;;;;;;;;;;5057806;28;20032;-83
2022/12/09 13:29:35;;;;;;;27.92;16.23;;;;;;;;;;5032990;28;20404;-84
2022/12/09 13:32:19;;;;;;;25.60;15.18;;;;;;;;;;5028572;28;20399;-83
2022/12/09 13:34:53;;;;;;;25.52;14.55;;;;;;;;;;5047037;28;20481;-83
2022/12/09 13:37:37;;;;;;;26.80;14.85;;;;;;;;;;5047108;28;20040;-84
2022/12/09 13:40:22;;;;;;;29.13;15.65;;;;;;;;;;5061464;28;20037;-84
2022/12/09 13:42:55;;;;;;;25.15;13.63;;;;;;;;;;5046738;28;20049;-84
2022/12/09 13:45:24;;;;;;;24.92;13.80;;;;;;;;;;5042276;28;20128;-84
2022/12/09 13:47:49;;;;;;;23.42;13.25;;;;;;;;;;5049515;28;20029;-83
2022/12/09 13:50:25;;;;;;;26.95;13.82;;;;;;;;;;5024426;28;20086;-83
2022/12/09 13:52:51;;;;;;;23.23;13.60;;;;;;;;;;5036146;28;20392;-84
2022/12/09 13:55:22;;;;;;;23.25;13.63;;;;;;;;;;5038341;28;20404;-83
2022/12/09 13:58:14;;;;;;;23.77;13.23;;;;;;;;;;5046305;28;20430;-83
2022/12/09 14:00:40;;;;;;;22.27;13.10;;;;;;;;;;4990976;28;20128;-84
2022/12/09 14:03:14;;;;;;;26.63;12.38;;;;;;;;;;5019699;28;20121;-82
2022/12/09 14:05:40;;;;;;;19.67;11.73;;;;;;;;;;5043189;28;20036;-83
2022/12/09 14:08:14;;;;;;;23.30;12.50;;;;;;;;;;5067096;28;20024;-83
2022/12/09 14:10:42;;;;;;;31.67;14.52;;;;;;;;;;5038180;28;20040;-83
2022/12/09 14:13:36;;;;;;;27.60;12.63;;;;;;;;;;5038642;28;20088;-83
2022/12/09 14:16:14;;;;;;;25.15;12.60;;;;;;;;;;5024561;28;20424;-84
2022/12/09 14:18:40;;;;;;;22.70;12.48;;;;;;;;;;5028257;28;20040;-83
2022/12/09 14:21:17;;;;;;;18.75;11.10;;;;;;;;;;5028085;28;20021;-84
2022/12/09 14:24:02;;;;;;;21.73;11.73;;;;;;;;;;5030055;28;20387;-84
2022/12/09 14:26:33;;;;;;;20.10;11.60;;;;;;;;;;5050095;28;20028;-84
2022/12/09 14:28:59;;;;;;;19.95;12.20;;;;;;;;;;5046032;28;20029;-84
2022/12/09 14:31:43;;;;;;;24.63;13.18;;;;;;;;;;5065591;28;20032;-83
2022/12/09 14:34:25;;;;;;;25.88;14.55;;;;;;;;;;5036117;28;20131;-83